sensor_id;sensor_type;location;lat;lon;timestamp;pressure;altitude;pressure_sealevel;temperature;humidity
29379;BME280;16362;47.202;15.258;2022-09-27T00:01:06;94843.22;;;10.60;100.00
29379;BME280;16362;47.202;15.258;2022-09-27T00:03:33;94844.06;;;10.61;100.00
29379;BME280;16362;47.202;15.258;2022-09-27T00:06:09;94829.72;;;10.55;100.00
29379;BME280;16362;47.202;15.258;2022-09-27T00:08:37;94832.19;;;10.50;100.00
29379;BME280;16362;47.202;15.258;2022-09-27T00:11:07;94838.53;;;10.49;100.00
29379;BME280;16362;47.202;15.258;2022-09-27T00:13:35;94842.44;;;10.47;100.00
29379;BME280;16362;47.202;15.258;2022-09-27T00:16:03;94841.22;;;10.42;100.00
29379;BME280;16362;47.202;15.258;2022-09-27T00:18:32;94836.53;;;10.38;100.00
29379;BME280;16362;47.202;15.258;2022-09-27T00:21:10;94831.38;;;10.36;100.00
29379;BME280;16362;47.202;15.258;2022-09-27T00:23:38;94833.63;;;10.33;100.00
29379;BME280;16362;47.202;15.258;2022-09-27T00:26:07;94831.56;;;10.35;100.00
29379;BME280;16362;47.202;15.258;2022-09-27T00:28:34;94827.47;;;10.39;100.00
29379;BME280;16362;47.202;15.258;2022-09-27T00:31:01;94827.91;;;10.36;100.00
29379;BME280;16362;47.202;15.258;2022-09-27T00:33:28;94823.19;;;10.24;100.00
29379;BME280;16362;47.202;15.258;2022-09-27T00:36:03;94822.13;;;10.19;100.00
29379;BME280;16362;47.202;15.258;2022-09-27T00:38:30;94817.63;;;10.19;100.00
29379;BME280;16362;47.202;15.258;2022-09-27T00:40:56;94815.78;;;10.20;100.00
29379;BME280;16362;47.202;15.258;2022-09-27T00:43:23;94815.56;;;10.21;100.00
29379;BME280;16362;47.202;15.258;2022-09-27T00:45:59;94812.72;;;10.23;100.00
29379;BME280;16362;47.202;15.258;2022-09-27T00:48:30;94807.19;;;10.24;100.00
29379;BME280;16362;47.202;15.258;2022-09-27T00:51:02;94817.00;;;10.24;100.00
29379;BME280;16362;47.202;15.258;2022-09-27T00:53:35;94816.19;;;10.23;100.00
29379;BME280;16362;47.202;15.258;2022-09-27T00:56:09;94808.78;;;10.25;100.00
29379;BME280;16362;47.202;15.258;2022-09-27T00:58:42;94814.53;;;10.29;100.00
29379;BME280;16362;47.202;15.258;2022-09-27T01:01:11;94801.00;;;10.31;100.00
29379;BME280;16362;47.202;15.258;2022-09-27T01:03:45;94804.28;;;10.33;100.00
29379;BME280;16362;47.202;15.258;2022-09-27T01:06:15;94797.31;;;10.38;100.00
29379;BME280;16362;47.202;15.258;2022-09-27T01:08:44;94793.63;;;10.39;100.00
29379;BME280;16362;47.202;15.258;2022-09-27T01:11:30;94790.13;;;10.39;100.00
29379;BME280;16362;47.202;15.258;2022-09-27T01:22:45;94777.63;;;10.39;100.00
29379;BME280;16362;47.202;15.258;2022-09-27T01:36:51;94744.78;;;10.45;100.00
29379;BME280;16362;47.202;15.258;2022-09-27T01:42:17;94734.53;;;10.42;100.00
29379;BME280;16362;47.202;15.258;2022-09-27T01:44:54;94728.78;;;10.45;100.00
29379;BME280;16362;47.202;15.258;2022-09-27T01:47:28;94738.22;;;10.48;100.00
29379;BME280;16362;47.202;15.258;2022-09-27T01:50:02;94725.50;;;10.50;100.00
29379;BME280;16362;47.202;15.258;2022-09-27T01:53:04;94727.31;;;10.50;100.00
29379;BME280;16362;47.202;15.258;2022-09-27T01:55:35;94727.31;;;10.50;100.00
29379;BME280;16362;47.202;15.258;2022-09-27T01:58:27;94728.97;;;10.51;100.00
29379;BME280;16362;47.202;15.258;2022-09-27T02:00:57;94720.97;;;10.51;100.00
29379;BME280;16362;47.202;15.258;2022-09-27T02:03:32;94725.06;;;10.53;100.00
29379;BME280;16362;47.202;15.258;2022-09-27T02:06:18;94716.03;;;10.54;100.00
29379;BME280;16362;47.202;15.258;2022-09-27T02:11:22;94711.72;;;10.53;100.00
29379;BME280;16362;47.202;15.258;2022-09-27T02:13:53;94711.72;;;10.53;100.00
29379;BME280;16362;47.202;15.258;2022-09-27T02:27:30;94691.00;;;10.55;100.00
29379;BME280;16362;47.202;15.258;2022-09-27T02:30:08;94687.72;;;10.53;100.00
29379;BME280;16362;47.202;15.258;2022-09-27T02:32:37;94691.22;;;10.47;100.00
29379;BME280;16362;47.202;15.258;2022-09-27T02:37:42;94686.94;;;10.46;100.00
29379;BME280;16362;47.202;15.258;2022-09-27T02:40:10;94686.50;;;10.49;100.00
29379;BME280;16362;47.202;15.258;2022-09-27T02:42:37;94684.66;;;10.50;100.00
29379;BME280;16362;47.202;15.258;2022-09-27T02:45:05;94686.91;;;10.53;100.00
29379;BME280;16362;47.202;15.258;2022-09-27T02:47:51;94679.94;;;10.52;100.00
29379;BME280;16362;47.202;15.258;2022-09-27T02:51:17;94686.28;;;10.51;100.00
29379;BME280;16362;47.202;15.258;2022-09-27T03:01:47;94676.03;;;10.54;100.00
29379;BME280;16362;47.202;15.258;2022-09-27T03:04:36;94673.56;;;10.53;100.00
29379;BME280;16362;47.202;15.258;2022-09-27T03:07:06;94667.22;;;10.47;100.00
29379;BME280;16362;47.202;15.258;2022-09-27T03:09:44;94668.88;;;10.48;100.00
29379;BME280;16362;47.202;15.258;2022-09-27T03:12:14;94650.81;;;10.50;100.00
29379;BME280;16362;47.202;15.258;2022-09-27T03:14:46;94662.28;;;10.51;100.00
29379;BME280;16362;47.202;15.258;2022-09-27T03:17:12;94659.03;;;10.49;100.00
29379;BME280;16362;47.202;15.258;2022-09-27T03:19:39;94654.50;;;10.49;100.00
29379;BME280;16362;47.202;15.258;2022-09-27T03:22:07;94645.47;;;10.50;100.00
29379;BME280;16362;47.202;15.258;2022-09-27T03:24:34;94646.91;;;10.53;100.00
29379;BME280;16362;47.202;15.258;2022-09-27T03:27:00;94643.41;;;10.52;100.00
29379;BME280;16362;47.202;15.258;2022-09-27T03:29:28;94640.50;;;10.54;100.00
29379;BME280;16362;47.202;15.258;2022-09-27T03:31:55;94628.81;;;10.55;100.00
29379;BME280;16362;47.202;15.258;2022-09-27T03:34:22;94625.34;;;10.54;100.00
29379;BME280;16362;47.202;15.258;2022-09-27T03:36:49;94624.31;;;10.55;100.00
29379;BME280;16362;47.202;15.258;2022-09-27T03:39:15;94622.91;;;10.53;100.00
29379;BME280;16362;47.202;15.258;2022-09-27T03:41:42;94616.72;;;10.52;100.00
29379;BME280;16362;47.202;15.258;2022-09-27T03:44:09;94604.22;;;10.53;100.00
29379;BME280;16362;47.202;15.258;2022-09-27T03:46:36;94599.25;;;10.56;100.00
29379;BME280;16362;47.202;15.258;2022-09-27T03:49:03;94597.66;;;10.55;100.00
29379;BME280;16362;47.202;15.258;2022-09-27T03:51:30;94595.41;;;10.52;100.00
29379;BME280;16362;47.202;15.258;2022-09-27T03:53:57;94593.56;;;10.53;100.00
29379;BME280;16362;47.202;15.258;2022-09-27T03:56:24;94593.75;;;10.51;100.00
29379;BME280;16362;47.202;15.258;2022-09-27T03:58:50;94590.91;;;10.53;100.00
29379;BME280;16362;47.202;15.258;2022-09-27T04:01:17;94587.41;;;10.52;100.00
29379;BME280;16362;47.202;15.258;2022-09-27T04:03:44;94584.50;;;10.54;100.00
29379;BME280;16362;47.202;15.258;2022-09-27T04:06:11;94576.72;;;10.52;100.00
29379;BME280;16362;47.202;15.258;2022-09-27T04:08:38;94582.06;;;10.52;100.00
29379;BME280;16362;47.202;15.258;2022-09-27T04:11:05;94571.38;;;10.52;100.00
29379;BME280;16362;47.202;15.258;2022-09-27T04:13:33;94563.38;;;10.52;100.00
29379;BME280;16362;47.202;15.258;2022-09-27T04:15:59;94572.63;;;10.50;100.00
29379;BME280;16362;47.202;15.258;2022-09-27T04:18:28;94570.19;;;10.48;100.00
29379;BME280;16362;47.202;15.258;2022-09-27T04:20:55;94562.19;;;10.48;100.00
29379;BME280;16362;47.202;15.258;2022-09-27T04:23:21;94553.38;;;10.48;100.00
29379;BME280;16362;47.202;15.258;2022-09-27T04:25:55;94560.53;;;10.47;100.00
29379;BME280;16362;47.202;15.258;2022-09-27T04:28:21;94545.38;;;10.48;100.00
29379;BME280;16362;47.202;15.258;2022-09-27T04:30:49;94541.88;;;10.47;100.00
29379;BME280;16362;47.202;15.258;2022-09-27T04:33:16;94549.88;;;10.47;100.00
29379;BME280;16362;47.202;15.258;2022-09-27T04:35:42;94547.22;;;10.47;100.00
29379;BME280;16362;47.202;15.258;2022-09-27T04:38:28;94543.97;;;10.45;100.00
29379;BME280;16362;47.202;15.258;2022-09-27T04:40:55;94533.28;;;10.45;100.00
29379;BME280;16362;47.202;15.258;2022-09-27T04:43:22;94527.34;;;10.43;100.00
29379;BME280;16362;47.202;15.258;2022-09-27T04:45:49;94534.53;;;10.42;100.00
29379;BME280;16362;47.202;15.258;2022-09-27T04:48:15;94523.06;;;10.42;100.00
29379;BME280;16362;47.202;15.258;2022-09-27T04:50:42;94518.75;;;10.41;100.00
29379;BME280;16362;47.202;15.258;2022-09-27T04:53:13;94520.41;;;10.42;100.00
29379;BME280;16362;47.202;15.258;2022-09-27T04:55:45;94511.78;;;10.40;100.00
29379;BME280;16362;47.202;15.258;2022-09-27T04:58:12;94513.44;;;10.41;100.00
29379;BME280;16362;47.202;15.258;2022-09-27T05:00:39;94516.09;;;10.41;100.00
29379;BME280;16362;47.202;15.258;2022-09-27T05:03:08;94514.22;;;10.41;100.00
29379;BME280;16362;47.202;15.258;2022-09-27T05:05:34;94514.00;;;10.43;100.00
29379;BME280;16362;47.202;15.258;2022-09-27T05:08:01;94505.19;;;10.42;100.00
29379;BME280;16362;47.202;15.258;2022-09-27T05:10:28;94510.09;;;10.45;100.00
29379;BME280;16362;47.202;15.258;2022-09-27T05:12:55;94508.47;;;10.44;100.00
29379;BME280;16362;47.202;15.258;2022-09-27T05:15:21;94507.66;;;10.44;100.00
29379;BME280;16362;47.202;15.258;2022-09-27T05:17:52;94501.28;;;10.45;100.00
29379;BME280;16362;47.202;15.258;2022-09-27T05:20:19;94508.69;;;10.43;100.00
29379;BME280;16362;47.202;15.258;2022-09-27T05:22:46;94509.72;;;10.42;100.00
29379;BME280;16362;47.202;15.258;2022-09-27T05:25:12;94503.34;;;10.43;100.00
29379;BME280;16362;47.202;15.258;2022-09-27T05:27:39;94507.88;;;10.42;100.00
29379;BME280;16362;47.202;15.258;2022-09-27T05:30:07;94502.31;;;10.44;100.00
29379;BME280;16362;47.202;15.258;2022-09-27T05:32:34;94507.22;;;10.47;100.00
29379;BME280;16362;47.202;15.258;2022-09-27T05:35:01;94506.78;;;10.50;100.00
29379;BME280;16362;47.202;15.258;2022-09-27T05:37:28;94500.03;;;10.48;100.00
29379;BME280;16362;47.202;15.258;2022-09-27T05:39:58;94500.03;;;10.48;100.00
29379;BME280;16362;47.202;15.258;2022-09-27T05:42:34;94503.50;;;10.48;100.00
29379;BME280;16362;47.202;15.258;2022-09-27T05:45:05;94493.28;;;10.45;100.00
29379;BME280;16362;47.202;15.258;2022-09-27T05:47:32;94498.41;;;10.47;100.00
29379;BME280;16362;47.202;15.258;2022-09-27T05:49:59;94496.97;;;10.44;100.00
29379;BME280;16362;47.202;15.258;2022-09-27T05:52:26;94503.97;;;10.45;100.00
29379;BME280;16362;47.202;15.258;2022-09-27T05:54:52;94491.00;;;10.49;100.00
29379;BME280;16362;47.202;15.258;2022-09-27T05:57:19;94489.97;;;10.50;100.00
29379;BME280;16362;47.202;15.258;2022-09-27T05:59:46;94491.38;;;10.52;100.00
29379;BME280;16362;47.202;15.258;2022-09-27T06:02:13;94488.72;;;10.52;100.00
29379;BME280;16362;47.202;15.258;2022-09-27T06:04:39;94489.53;;;10.53;100.00
29379;BME280;16362;47.202;15.258;2022-09-27T06:07:06;94485.81;;;10.54;100.00
29379;BME280;16362;47.202;15.258;2022-09-27T06:09:33;94479.25;;;10.56;100.00
29379;BME280;16362;47.202;15.258;2022-09-27T06:12:00;94487.84;;;10.58;100.00
29379;BME280;16362;47.202;15.258;2022-09-27T06:14:26;94490.06;;;10.61;100.00
29379;BME280;16362;47.202;15.258;2022-09-27T06:16:53;94499.72;;;10.63;100.00
29379;BME280;16362;47.202;15.258;2022-09-27T06:19:20;94492.75;;;10.61;100.00
29379;BME280;16362;47.202;15.258;2022-09-27T06:21:50;94485.75;;;10.60;100.00
29379;BME280;16362;47.202;15.258;2022-09-27T06:24:16;94486.97;;;10.65;100.00
29379;BME280;16362;47.202;15.258;2022-09-27T06:26:43;94485.50;;;10.69;100.00
29379;BME280;16362;47.202;15.258;2022-09-27T06:29:10;94484.00;;;10.73;100.00
29379;BME280;16362;47.202;15.258;2022-09-27T06:31:37;94479.88;;;10.77;100.00
29379;BME280;16362;47.202;15.258;2022-09-27T06:34:04;94474.13;;;10.80;100.00
29379;BME280;16362;47.202;15.258;2022-09-27T06:36:30;94475.91;;;10.86;100.00
29379;BME280;16362;47.202;15.258;2022-09-27T06:38:58;94473.78;;;10.95;100.00
29379;BME280;16362;47.202;15.258;2022-09-27T06:41:27;94471.91;;;10.95;100.00
29379;BME280;16362;47.202;15.258;2022-09-27T06:43:53;94464.50;;;10.98;100.00
29379;BME280;16362;47.202;15.258;2022-09-27T06:46:20;94466.88;;;11.06;100.00
29379;BME280;16362;47.202;15.258;2022-09-27T06:48:47;94471.19;;;11.07;100.00
29379;BME280;16362;47.202;15.258;2022-09-27T06:51:14;94463.59;;;11.04;100.00
29379;BME280;16362;47.202;15.258;2022-09-27T06:53:41;94464.06;;;11.01;100.00
29379;BME280;16362;47.202;15.258;2022-09-27T06:56:07;94473.09;;;11.00;100.00
29379;BME280;16362;47.202;15.258;2022-09-27T06:58:34;94467.97;;;10.98;100.00
29379;BME280;16362;47.202;15.258;2022-09-27T07:01:20;94470.44;;;11.00;100.00
29379;BME280;16362;47.202;15.258;2022-09-27T07:03:50;94470.19;;;11.01;100.00
29379;BME280;16362;47.202;15.258;2022-09-27T07:06:19;94479.63;;;11.04;100.00
29379;BME280;16362;47.202;15.258;2022-09-27T07:08:52;94477.56;;;11.06;100.00
29379;BME280;16362;47.202;15.258;2022-09-27T07:11:20;94481.03;;;11.06;100.00
29379;BME280;16362;47.202;15.258;2022-09-27T07:13:49;94492.31;;;11.08;100.00
29379;BME280;16362;47.202;15.258;2022-09-27T07:16:16;94490.31;;;11.04;100.00
29379;BME280;16362;47.202;15.258;2022-09-27T07:18:43;94493.41;;;11.01;100.00
29379;BME280;16362;47.202;15.258;2022-09-27T07:21:10;94495.06;;;11.02;100.00
29379;BME280;16362;47.202;15.258;2022-09-27T07:23:38;94496.47;;;11.04;100.00
29379;BME280;16362;47.202;15.258;2022-09-27T07:26:05;94509.94;;;11.09;100.00
29379;BME280;16362;47.202;15.258;2022-09-27T07:28:33;94515.69;;;11.13;100.00
29379;BME280;16362;47.202;15.258;2022-09-27T07:31:01;94519.75;;;11.16;100.00
29379;BME280;16362;47.202;15.258;2022-09-27T07:33:29;94528.38;;;11.18;100.00
29379;BME280;16362;47.202;15.258;2022-09-27T07:35:55;94520.56;;;11.16;100.00
29379;BME280;16362;47.202;15.258;2022-09-27T07:38:22;94516.41;;;11.20;100.00
29379;BME280;16362;47.202;15.258;2022-09-27T07:40:49;94518.44;;;11.25;100.00
29379;BME280;16362;47.202;15.258;2022-09-27T07:43:16;94520.75;;;11.40;100.00
29379;BME280;16362;47.202;15.258;2022-09-27T07:45:44;94515.72;;;11.50;100.00
29379;BME280;16362;47.202;15.258;2022-09-27T07:48:15;94520.00;;;11.51;100.00
29379;BME280;16362;47.202;15.258;2022-09-27T07:50:42;94522.00;;;11.56;100.00
29379;BME280;16362;47.202;15.258;2022-09-27T07:53:09;94529.50;;;11.66;100.00
29379;BME280;16362;47.202;15.258;2022-09-27T07:55:39;94532.53;;;11.69;100.00
29379;BME280;16362;47.202;15.258;2022-09-27T07:58:08;94536.19;;;11.75;100.00
29379;BME280;16362;47.202;15.258;2022-09-27T08:00:37;94526.72;;;11.91;100.00
29379;BME280;16362;47.202;15.258;2022-09-27T08:03:13;94525.09;;;11.90;100.00
29379;BME280;16362;47.202;15.258;2022-09-27T08:05:43;94526.50;;;11.92;100.00
29379;BME280;16362;47.202;15.258;2022-09-27T08:08:10;94526.78;;;12.03;100.00
29379;BME280;16362;47.202;15.258;2022-09-27T08:10:37;94533.06;;;11.96;100.00
29379;BME280;16362;47.202;15.258;2022-09-27T08:13:07;94532.38;;;12.01;100.00
29379;BME280;16362;47.202;15.258;2022-09-27T08:15:35;94527.63;;;12.03;100.00
29379;BME280;16362;47.202;15.258;2022-09-27T08:18:05;94529.75;;;12.13;100.00
29379;BME280;16362;47.202;15.258;2022-09-27T08:20:32;94529.66;;;12.20;100.00
29379;BME280;16362;47.202;15.258;2022-09-27T08:22:58;94529.66;;;12.20;100.00
29379;BME280;16362;47.202;15.258;2022-09-27T08:25:25;94529.66;;;12.20;100.00
29379;BME280;16362;47.202;15.258;2022-09-27T08:27:55;94531.41;;;12.14;100.00
29379;BME280;16362;47.202;15.258;2022-09-27T08:30:23;94530.28;;;12.22;100.00
29379;BME280;16362;47.202;15.258;2022-09-27T08:32:57;94535.38;;;12.23;100.00
29379;BME280;16362;47.202;15.258;2022-09-27T08:35:24;94536.19;;;12.24;100.00
29379;BME280;16362;47.202;15.258;2022-09-27T08:37:58;94532.25;;;12.26;100.00
29379;BME280;16362;47.202;15.258;2022-09-27T08:45:45;94544.03;;;12.37;100.00
29379;BME280;16362;47.202;15.258;2022-09-27T08:48:20;94541.13;;;12.39;100.00
29379;BME280;16362;47.202;15.258;2022-09-27T08:50:48;94536.72;;;12.44;100.00
29379;BME280;16362;47.202;15.258;2022-09-27T08:53:26;94540.94;;;12.52;100.00
29379;BME280;16362;47.202;15.258;2022-09-27T08:55:57;94541.97;;;12.51;100.00
29379;BME280;16362;47.202;15.258;2022-09-27T08:58:36;94540.78;;;12.47;100.00
29379;BME280;16362;47.202;15.258;2022-09-27T09:01:11;94544.50;;;12.46;100.00
29379;BME280;16362;47.202;15.258;2022-09-27T09:03:47;94555.22;;;12.46;100.00
29379;BME280;16362;47.202;15.258;2022-09-27T09:06:25;94551.34;;;12.42;100.00
29379;BME280;16362;47.202;15.258;2022-09-27T09:18:15;94550.78;;;12.40;100.00
29379;BME280;16362;47.202;15.258;2022-09-27T09:20:25;94562.53;;;12.39;100.00
29379;BME280;16362;47.202;15.258;2022-09-27T09:33:55;94590.22;;;11.95;100.00
29379;BME280;16362;47.202;15.258;2022-09-27T09:39:09;94569.56;;;11.84;100.00
29379;BME280;16362;47.202;15.258;2022-09-27T09:41:41;94564.66;;;11.81;100.00
29379;BME280;16362;47.202;15.258;2022-09-27T09:44:29;94566.75;;;11.79;100.00
29379;BME280;16362;47.202;15.258;2022-09-27T09:47:00;94563.63;;;11.82;100.00
29379;BME280;16362;47.202;15.258;2022-09-27T09:49:36;94572.91;;;11.79;100.00
29379;BME280;16362;47.202;15.258;2022-09-27T09:52:10;94571.28;;;11.78;100.00
29379;BME280;16362;47.202;15.258;2022-09-27T09:55:01;94575.88;;;11.71;100.00
29379;BME280;16362;47.202;15.258;2022-09-27T09:57:38;94561.78;;;11.64;100.00
29379;BME280;16362;47.202;15.258;2022-09-27T10:00:17;94546.41;;;11.59;100.00
29379;BME280;16362;47.202;15.258;2022-09-27T10:02:46;94536.31;;;11.43;100.00
29379;BME280;16362;47.202;15.258;2022-09-27T10:05:16;94548.47;;;11.20;100.00
29379;BME280;16362;47.202;15.258;2022-09-27T10:07:44;94545.66;;;11.15;100.00
29379;BME280;16362;47.202;15.258;2022-09-27T10:10:14;94555.19;;;11.04;100.00
29379;BME280;16362;47.202;15.258;2022-09-27T10:12:42;94554.13;;;11.05;100.00
29379;BME280;16362;47.202;15.258;2022-09-27T10:15:17;94554.59;;;11.02;100.00
29379;BME280;16362;47.202;15.258;2022-09-27T10:17:48;94564.63;;;11.07;100.00
29379;BME280;16362;47.202;15.258;2022-09-27T10:20:40;94556.75;;;11.12;100.00
29379;BME280;16362;47.202;15.258;2022-09-27T10:23:16;94570.88;;;11.19;100.00
29379;BME280;16362;47.202;15.258;2022-09-27T10:25:49;94564.75;;;11.12;100.00
29379;BME280;16362;47.202;15.258;2022-09-27T10:28:53;94578.94;;;11.12;100.00
29379;BME280;16362;47.202;15.258;2022-09-27T10:31:21;94580.03;;;11.05;100.00
29379;BME280;16362;47.202;15.258;2022-09-27T10:33:58;94571.00;;;11.06;100.00
29379;BME280;16362;47.202;15.258;2022-09-27T10:36:29;94586.56;;;11.09;100.00
29379;BME280;16362;47.202;15.258;2022-09-27T10:38:59;94584.69;;;11.09;100.00
29379;BME280;16362;47.202;15.258;2022-09-27T10:41:34;94594.56;;;11.09;100.00
29379;BME280;16362;47.202;15.258;2022-09-27T10:44:25;94585.53;;;11.10;100.00
29379;BME280;16362;47.202;15.258;2022-09-27T10:47:00;94595.31;;;11.16;100.00
29379;BME280;16362;47.202;15.258;2022-09-27T10:49:33;94590.31;;;11.26;100.00
29379;BME280;16362;47.202;15.258;2022-09-27T10:52:06;94581.72;;;11.43;100.00
29379;BME280;16362;47.202;15.258;2022-09-27T10:54:35;94581.59;;;11.56;100.00
29379;BME280;16362;47.202;15.258;2022-09-27T10:57:15;94579.06;;;11.61;100.00
29379;BME280;16362;47.202;15.258;2022-09-27T10:59:46;94581.59;;;11.75;100.00
29379;BME280;16362;47.202;15.258;2022-09-27T11:02:20;94581.59;;;11.93;100.00
29379;BME280;16362;47.202;15.258;2022-09-27T11:07:35;94578.41;;;12.22;100.00
29379;BME280;16362;47.202;15.258;2022-09-27T11:10:39;94578.00;;;12.37;100.00
29379;BME280;16362;47.202;15.258;2022-09-27T11:13:16;94565.47;;;12.49;100.00
29379;BME280;16362;47.202;15.258;2022-09-27T11:16:11;94555.84;;;12.29;100.00
29379;BME280;16362;47.202;15.258;2022-09-27T11:24:54;94548.25;;;12.45;100.00
29379;BME280;16362;47.202;15.258;2022-09-27T11:27:33;94546.88;;;12.54;100.00
29379;BME280;16362;47.202;15.258;2022-09-27T11:30:13;94541.63;;;12.59;100.00
29379;BME280;16362;47.202;15.258;2022-09-27T11:41:34;94549.38;;;12.37;100.00
29379;BME280;16362;47.202;15.258;2022-09-27T11:44:26;94545.06;;;12.36;100.00
29379;BME280;16362;47.202;15.258;2022-09-27T11:47:16;94544.34;;;12.29;100.00
29379;BME280;16362;47.202;15.258;2022-09-27T11:52:54;94549.19;;;12.20;100.00
29379;BME280;16362;47.202;15.258;2022-09-27T12:01:33;94527.41;;;12.05;100.00
29379;BME280;16362;47.202;15.258;2022-09-27T12:06:57;94541.50;;;11.93;100.00
29379;BME280;16362;47.202;15.258;2022-09-27T12:09:32;94543.00;;;11.89;100.00
29379;BME280;16362;47.202;15.258;2022-09-27T12:12:11;94541.13;;;11.90;100.00
29379;BME280;16362;47.202;15.258;2022-09-27T12:14:45;94545.69;;;11.89;100.00
29379;BME280;16362;47.202;15.258;2022-09-27T12:17:22;94537.81;;;11.94;100.00
29379;BME280;16362;47.202;15.258;2022-09-27T12:19:52;94541.09;;;11.96;100.00
29379;BME280;16362;47.202;15.258;2022-09-27T12:22:37;94543.75;;;11.96;100.00
29379;BME280;16362;47.202;15.258;2022-09-27T12:25:28;94559.56;;;11.98;100.00
29379;BME280;16362;47.202;15.258;2022-09-27T12:28:32;94567.34;;;12.00;100.00
29379;BME280;16362;47.202;15.258;2022-09-27T12:31:04;94565.72;;;11.99;100.00
29379;BME280;16362;47.202;15.258;2022-09-27T12:36:31;94570.41;;;12.03;100.00
29379;BME280;16362;47.202;15.258;2022-09-27T12:39:10;94567.28;;;12.06;100.00
29379;BME280;16362;47.202;15.258;2022-09-27T12:41:43;94576.69;;;12.09;100.00
29379;BME280;16362;47.202;15.258;2022-09-27T12:44:13;94568.00;;;12.13;100.00
29379;BME280;16362;47.202;15.258;2022-09-27T12:52:24;94565.38;;;12.25;100.00
29379;BME280;16362;47.202;15.258;2022-09-27T12:55:06;94560.41;;;12.29;100.00
29379;BME280;16362;47.202;15.258;2022-09-27T13:00:33;94567.63;;;12.40;100.00
29379;BME280;16362;47.202;15.258;2022-09-27T13:08:52;94571.06;;;12.48;100.00
29379;BME280;16362;47.202;15.258;2022-09-27T13:14:17;94570.63;;;12.62;100.00
29379;BME280;16362;47.202;15.258;2022-09-27T13:16:45;94568.66;;;12.70;100.00
29379;BME280;16362;47.202;15.258;2022-09-27T13:19:42;94572.28;;;12.75;100.00
29379;BME280;16362;47.202;15.258;2022-09-27T13:22:35;94567.63;;;12.71;100.00
29379;BME280;16362;47.202;15.258;2022-09-27T13:25:13;94570.75;;;12.68;100.00
29379;BME280;16362;47.202;15.258;2022-09-27T13:27:49;94570.03;;;12.60;100.00
29379;BME280;16362;47.202;15.258;2022-09-27T13:35:35;94572.97;;;12.71;100.00
29379;BME280;16362;47.202;15.258;2022-09-27T13:38:02;94567.28;;;12.79;100.00
29379;BME280;16362;47.202;15.258;2022-09-27T13:40:33;94578.56;;;12.81;100.00
29379;BME280;16362;47.202;15.258;2022-09-27T13:45:54;94581.25;;;12.81;100.00
29379;BME280;16362;47.202;15.258;2022-09-27T13:48:29;94579.75;;;12.85;100.00
29379;BME280;16362;47.202;15.258;2022-09-27T13:51:04;94585.09;;;12.85;100.00
29379;BME280;16362;47.202;15.258;2022-09-27T13:53:39;94587.19;;;12.83;100.00
29379;BME280;16362;47.202;15.258;2022-09-27T13:59:17;94584.38;;;12.78;100.00
29379;BME280;16362;47.202;15.258;2022-09-27T14:01:50;94585.09;;;12.73;100.00
29379;BME280;16362;47.202;15.258;2022-09-27T14:04:29;94593.31;;;12.72;100.00
29379;BME280;16362;47.202;15.258;2022-09-27T14:07:01;94583.69;;;12.71;100.00
29379;BME280;16362;47.202;15.258;2022-09-27T14:09:32;94589.03;;;12.71;100.00
29379;BME280;16362;47.202;15.258;2022-09-27T14:12:03;94593.13;;;12.73;100.00
29379;BME280;16362;47.202;15.258;2022-09-27T14:14:32;94596.84;;;12.72;100.00
29379;BME280;16362;47.202;15.258;2022-09-27T14:17:02;94597.63;;;12.73;100.00
29379;BME280;16362;47.202;15.258;2022-09-27T14:19:39;94601.34;;;12.72;100.00
29379;BME280;16362;47.202;15.258;2022-09-27T14:22:14;94602.06;;;12.67;100.00
29379;BME280;16362;47.202;15.258;2022-09-27T14:27:20;94599.47;;;12.60;100.00
29379;BME280;16362;47.202;15.258;2022-09-27T14:32:20;94599.78;;;12.52;100.00
29379;BME280;16362;47.202;15.258;2022-09-27T14:35:12;94599.41;;;12.49;100.00
29379;BME280;16362;47.202;15.258;2022-09-27T14:37:59;94604.78;;;12.49;100.00
29379;BME280;16362;47.202;15.258;2022-09-27T14:41:01;94610.34;;;12.47;100.00
29379;BME280;16362;47.202;15.258;2022-09-27T14:43:29;94624.75;;;12.46;100.00
29379;BME280;16362;47.202;15.258;2022-09-27T14:45:59;94631.63;;;12.42;100.00
29379;BME280;16362;47.202;15.258;2022-09-27T14:50:59;94651.72;;;12.14;100.00
29379;BME280;16362;47.202;15.258;2022-09-27T14:53:47;94655.44;;;12.13;100.00
29379;BME280;16362;47.202;15.258;2022-09-27T14:56:19;94662.88;;;12.11;100.00
29379;BME280;16362;47.202;15.258;2022-09-27T14:58:53;94667.16;;;12.12;100.00
29379;BME280;16362;47.202;15.258;2022-09-27T15:01:21;94676.25;;;12.11;100.00
29379;BME280;16362;47.202;15.258;2022-09-27T15:03:49;94684.03;;;12.12;100.00
29379;BME280;16362;47.202;15.258;2022-09-27T15:06:17;94684.25;;;12.11;100.00
29379;BME280;16362;47.202;15.258;2022-09-27T15:08:44;94680.97;;;12.09;100.00
29379;BME280;16362;47.202;15.258;2022-09-27T15:11:16;94686.56;;;12.07;100.00
29379;BME280;16362;47.202;15.258;2022-09-27T15:13:46;94687.44;;;12.01;100.00
29379;BME280;16362;47.202;15.258;2022-09-27T15:16:20;94688.09;;;11.96;100.00
29379;BME280;16362;47.202;15.258;2022-09-27T15:18:59;94691.53;;;12.04;100.00
29379;BME280;16362;47.202;15.258;2022-09-27T15:21:32;94691.97;;;12.01;100.00
29379;BME280;16362;47.202;15.258;2022-09-27T15:23:59;94698.19;;;11.94;100.00
29379;BME280;16362;47.202;15.258;2022-09-27T15:29:04;94706.31;;;11.81;100.00
29379;BME280;16362;47.202;15.258;2022-09-27T15:31:33;94707.94;;;11.82;100.00